createdAt,value
2018-12-31T00:00:14.262Z,90.39
2018-12-31T00:01:14.248Z,90.39
2018-12-31T00:02:14.239Z,90.29
2018-12-31T00:03:14.233Z,90.29
2018-12-31T00:04:14.244Z,90.29
2018-12-31T00:05:14.207Z,90.60
2018-12-31T00:06:14.219Z,90.81
2018-12-31T00:07:14.184Z,90.81
2018-12-31T00:08:14.170Z,90.39
2018-12-31T00:09:14.198Z,90.60
2018-12-31T00:10:14.149Z,90.39
2018-12-31T00:11:14.138Z,90.91
2018-12-31T00:12:14.126Z,91.22
2018-12-31T00:13:14.117Z,91.12
2018-12-31T00:14:14.105Z,91.22
2018-12-31T00:15:14.117Z,91.33
2018-12-31T00:16:14.083Z,91.64
2018-12-31T00:17:14.070Z,91.37
2018-12-31T00:18:14.063Z,91.47
2018-12-31T00:19:14.049Z,91.68
2018-12-31T00:20:14.074Z,91.58
2018-12-31T00:21:14.043Z,91.78
2018-12-31T00:22:14.016Z,91.68
2018-12-31T00:23:14.004Z,91.99
2018-12-31T00:24:13.994Z,91.99
2018-12-31T00:25:14.010Z,92.10
2018-12-31T00:26:13.973Z,91.99
2018-12-31T00:27:13.961Z,91.95
2018-12-31T00:28:13.953Z,91.64
2018-12-31T00:29:13.955Z,91.74
2018-12-31T00:30:13.963Z,91.64
2018-12-31T00:31:13.917Z,91.74
2018-12-31T00:32:13.908Z,91.74
2018-12-31T00:33:13.894Z,91.74
2018-12-31T00:34:13.883Z,91.53
2018-12-31T00:35:13.872Z,91.74
2018-12-31T00:36:13.884Z,91.43
2018-12-31T00:37:13.848Z,91.85
2018-12-31T00:38:13.840Z,91.74
2018-12-31T00:39:13.826Z,91.85
2018-12-31T00:40:13.817Z,91.85
2018-12-31T00:41:13.840Z,92.20
2018-12-31T00:42:13.796Z,91.74
2018-12-31T00:43:13.782Z,91.95
2018-12-31T00:44:13.771Z,91.74
2018-12-31T00:45:13.761Z,91.43
2018-12-31T00:46:13.749Z,91.43
2018-12-31T00:47:13.765Z,91.64
2018-12-31T00:48:13.728Z,91.85
2018-12-31T00:49:13.717Z,91.43
2018-12-31T00:50:13.719Z,91.74
2018-12-31T00:51:13.696Z,91.53
2018-12-31T00:52:13.716Z,91.74
2018-12-31T00:53:13.674Z,91.33
2018-12-31T00:54:13.660Z,91.43
2018-12-31T00:55:13.654Z,91.53
2018-12-31T00:56:13.639Z,91.33
2018-12-31T00:57:13.661Z,91.43
2018-12-31T00:58:13.615Z,91.53
2018-12-31T00:59:13.605Z,91.64
2018-12-31T01:00:13.597Z,91.53
2018-12-31T01:01:13.583Z,91.53
2018-12-31T01:02:13.572Z,91.33
2018-12-31T01:03:13.585Z,91.16
2018-12-31T01:04:13.550Z,91.78
2018-12-31T01:05:13.545Z,91.78
2018-12-31T01:06:13.527Z,91.89
2018-12-31T01:07:13.515Z,91.68
2018-12-31T01:08:13.529Z,91.99
2018-12-31T01:09:13.493Z,91.89
2018-12-31T01:10:13.485Z,91.78
2018-12-31T01:11:13.470Z,91.99
2018-12-31T01:12:13.461Z,92.20
2018-12-31T01:13:13.486Z,92.10
2018-12-31T01:14:13.438Z,92.10
2018-12-31T01:15:13.450Z,92.03
2018-12-31T01:16:13.414Z,92.03
2018-12-31T01:17:13.406Z,91.99
2018-12-31T01:18:13.392Z,92.03
2018-12-31T01:19:13.409Z,92.35
2018-12-31T01:20:13.370Z,92.24
2018-12-31T01:21:13.361Z,93.07
2018-12-31T01:22:13.348Z,92.24
2018-12-31T01:23:13.337Z,92.55
2018-12-31T01:24:13.354Z,92.45
2018-12-31T01:25:13.315Z,92.35
2018-12-31T01:26:13.308Z,92.24
2018-12-31T01:27:13.298Z,91.93
2018-12-31T01:28:13.296Z,92.14
2018-12-31T01:29:13.309Z,92.10
2018-12-31T01:30:13.260Z,91.58
2018-12-31T01:31:13.250Z,91.68
2018-12-31T01:32:13.240Z,91.78
2018-12-31T01:33:13.229Z,91.68
2018-12-31T01:34:13.222Z,91.68
2018-12-31T01:35:13.235Z,91.78
2018-12-31T01:36:13.199Z,91.78
2018-12-31T01:37:13.184Z,91.68
2018-12-31T01:38:13.173Z,91.68
2018-12-31T01:39:13.164Z,91.78
2018-12-31T01:40:13.181Z,92.20
2018-12-31T01:41:13.144Z,92.10
2018-12-31T01:42:13.140Z,92.30
2018-12-31T01:43:13.119Z,92.10
2018-12-31T01:44:13.110Z,91.68
2018-12-31T01:45:13.137Z,92.10
2018-12-31T01:46:13.085Z,92.30
2018-12-31T01:47:13.074Z,92.20
2018-12-31T01:48:13.062Z,92.30
2018-12-31T01:49:13.053Z,91.62
2018-12-31T01:50:13.041Z,92.14
2018-12-31T01:51:13.056Z,92.20
2018-12-31T01:52:13.019Z,92.10
2018-12-31T01:53:13.008Z,92.20
2018-12-31T01:54:12.997Z,92.10
2018-12-31T01:55:12.985Z,92.61
2018-12-31T01:56:12.998Z,92.30
2018-12-31T01:57:12.965Z,92.51
2018-12-31T01:58:12.954Z,92.30
2018-12-31T01:59:12.940Z,92.41
2018-12-31T02:00:12.930Z,92.41
2018-12-31T02:01:12.960Z,92.41
2018-12-31T02:02:12.909Z,92.20
2018-12-31T02:03:12.900Z,93.33
2018-12-31T02:04:12.885Z,93.23
2018-12-31T02:05:12.875Z,93.13
2018-12-31T02:06:12.861Z,93.02
2018-12-31T02:07:12.877Z,93.33
2018-12-31T02:08:12.843Z,92.93
2018-12-31T02:09:12.830Z,93.54
2018-12-31T02:10:12.818Z,93.23
2018-12-31T02:11:12.807Z,93.54
2018-12-31T02:12:12.824Z,93.33
2018-12-31T02:13:12.785Z,93.65
2018-12-31T02:14:12.790Z,93.44
2018-12-31T02:15:12.762Z,93.75
2018-12-31T02:16:12.752Z,93.59
2018-12-31T02:17:12.777Z,93.33
2018-12-31T02:18:12.728Z,93.54
2018-12-31T02:19:12.719Z,93.54
2018-12-31T02:20:12.713Z,93.54
2018-12-31T02:21:12.697Z,93.54
2018-12-31T02:22:12.689Z,93.85
2018-12-31T02:23:12.703Z,93.75
2018-12-31T02:24:12.664Z,94.21
2018-12-31T02:25:12.652Z,94.06
2018-12-31T02:26:13.681Z,93.85
2018-12-31T02:27:12.629Z,93.96
2018-12-31T02:28:12.645Z,93.96
2018-12-31T02:29:12.611Z,93.96
2018-12-31T02:30:12.597Z,93.85
2018-12-31T02:31:12.583Z,93.85
2018-12-31T02:32:14.433Z,93.75
2018-12-31T02:33:12.597Z,93.65
2018-12-31T02:34:12.559Z,93.65
2018-12-31T02:35:12.541Z,93.33
2018-12-31T02:36:12.529Z,93.65
2018-12-31T02:37:12.544Z,93.85
2018-12-31T02:38:12.509Z,93.54
2018-12-31T02:39:12.543Z,93.75
2018-12-31T02:40:12.492Z,94.17
2018-12-31T02:41:12.485Z,94.17
2018-12-31T02:42:12.466Z,93.85
2018-12-31T02:43:12.451Z,93.85
2018-12-31T02:44:12.472Z,94.06
2018-12-31T02:45:12.431Z,93.96
2018-12-31T02:46:12.423Z,93.96
2018-12-31T02:47:12.407Z,93.75
2018-12-31T02:48:12.401Z,94.06
2018-12-31T02:49:12.421Z,94.27
2018-12-31T02:50:12.377Z,93.85
2018-12-31T02:51:12.368Z,93.65
2018-12-31T02:52:12.352Z,93.85
2018-12-31T02:53:12.342Z,93.96
2018-12-31T02:54:12.330Z,93.96
2018-12-31T02:55:12.345Z,94.06
2018-12-31T02:56:12.308Z,93.85
2018-12-31T02:57:12.297Z,93.96
2018-12-31T02:58:12.286Z,94.02
2018-12-31T02:59:12.278Z,93.96
2018-12-31T03:00:12.299Z,93.65
2018-12-31T03:01:12.253Z,94.17
2018-12-31T03:02:12.246Z,93.75
2018-12-31T03:03:12.233Z,94.06
2018-12-31T03:04:12.229Z,93.75
2018-12-31T03:05:12.208Z,93.85
2018-12-31T03:06:12.223Z,94.06
2018-12-31T03:07:12.186Z,93.96
2018-12-31T03:08:12.176Z,93.96
2018-12-31T03:09:12.165Z,93.85
2018-12-31T03:10:12.152Z,94.37
2018-12-31T03:11:12.179Z,94.37
2018-12-31T03:12:12.130Z,94.37
2018-12-31T03:13:12.120Z,94.48
2018-12-31T03:14:12.109Z,94.06
2018-12-31T03:15:12.100Z,94.68
2018-12-31T03:16:12.085Z,94.48
2018-12-31T03:17:12.101Z,94.58
2018-12-31T03:18:12.063Z,94.27
2018-12-31T03:19:12.054Z,94.68
2018-12-31T03:20:12.041Z,94.27
2018-12-31T03:21:12.032Z,95.00
2018-12-31T03:22:12.057Z,95.10
2018-12-31T03:23:12.011Z,95.00
2018-12-31T03:24:12.000Z,94.89
2018-12-31T03:25:11.984Z,95.31
2018-12-31T03:26:11.981Z,95.10
2018-12-31T03:27:11.963Z,95.51
2018-12-31T03:28:11.989Z,95.51
2018-12-31T03:29:11.943Z,95.41
2018-12-31T03:30:11.937Z,95.41
2018-12-31T03:31:11.920Z,95.46
2018-12-31T03:32:11.918Z,95.46
2018-12-31T03:33:11.902Z,95.10
2018-12-31T03:34:11.926Z,95.25
2018-12-31T03:35:11.877Z,95.10
2018-12-31T03:36:11.866Z,95.41
2018-12-31T03:37:11.854Z,95.51
2018-12-31T03:38:11.845Z,95.41
2018-12-31T03:39:11.882Z,95.20
2018-12-31T03:40:11.857Z,95.00
2018-12-31T03:41:11.810Z,95.62
2018-12-31T03:42:11.807Z,95.41
2018-12-31T03:43:11.790Z,95.41
2018-12-31T03:44:11.778Z,95.41
2018-12-31T03:45:11.767Z,95.41
2018-12-31T03:46:11.801Z,95.51
2018-12-31T03:47:12.395Z,95.00
2018-12-31T03:48:11.734Z,95.31
2018-12-31T03:49:11.725Z,95.20
2018-12-31T03:50:11.715Z,95.00
2018-12-31T03:51:11.701Z,95.51
2018-12-31T03:52:11.727Z,95.00
2018-12-31T03:53:11.681Z,95.72
2018-12-31T03:54:11.668Z,95.72
2018-12-31T03:55:11.658Z,95.56
2018-12-31T03:56:11.673Z,94.89
2018-12-31T03:57:11.638Z,95.41
2018-12-31T03:58:11.663Z,95.51
2018-12-31T03:59:11.620Z,95.41
2018-12-31T04:00:11.607Z,95.31
2018-12-31T04:01:11.596Z,95.20
2018-12-31T04:02:11.591Z,95.20
2018-12-31T04:03:11.570Z,95.20
2018-12-31T04:04:11.587Z,94.89
2018-12-31T04:05:11.548Z,95.51
2018-12-31T04:06:11.539Z,95.41
2018-12-31T04:07:11.530Z,95.72
2018-12-31T04:08:11.554Z,95.72
2018-12-31T04:09:11.505Z,95.83
2018-12-31T04:10:11.493Z,95.83
2018-12-31T04:11:11.481Z,95.62
2018-12-31T04:12:11.481Z,96.03
2018-12-31T04:13:11.461Z,96.14
2018-12-31T04:14:11.488Z,95.62
2018-12-31T04:15:11.438Z,96.03
2018-12-31T04:16:11.426Z,95.72
2018-12-31T04:17:11.421Z,95.62
2018-12-31T04:18:11.408Z,95.51
2018-12-31T04:19:11.399Z,95.20
2018-12-31T04:20:11.439Z,95.62
2018-12-31T04:21:11.373Z,95.31
2018-12-31T04:22:11.361Z,95.62
2018-12-31T04:23:11.349Z,95.62
2018-12-31T04:24:11.337Z,95.83
2018-12-31T04:25:11.362Z,95.41
2018-12-31T04:26:11.314Z,95.62
2018-12-31T04:27:11.304Z,95.20
2018-12-31T04:28:11.295Z,95.41
2018-12-31T04:29:11.281Z,95.41
2018-12-31T04:30:11.272Z,95.41
2018-12-31T04:31:11.283Z,95.62
2018-12-31T04:32:11.249Z,95.62
2018-12-31T04:33:11.237Z,95.51
2018-12-31T04:34:11.226Z,95.51
2018-12-31T04:35:11.217Z,96.03
2018-12-31T04:36:11.242Z,95.41
2018-12-31T04:37:11.193Z,95.31
2018-12-31T04:38:11.180Z,95.72
2018-12-31T04:39:11.169Z,95.78
2018-12-31T04:40:11.160Z,95.68
2018-12-31T04:41:11.147Z,95.68
2018-12-31T04:42:11.175Z,94.85
2018-12-31T04:43:11.125Z,95.16
2018-12-31T04:44:11.115Z,95.51
2018-12-31T04:45:11.124Z,96.03
2018-12-31T04:46:11.091Z,95.83
2018-12-31T04:47:11.082Z,95.62
2018-12-31T04:48:11.096Z,95.62
2018-12-31T04:49:11.060Z,95.41
2018-12-31T04:50:11.048Z,95.57
2018-12-31T04:51:11.037Z,95.72
2018-12-31T04:52:11.028Z,95.31
2018-12-31T04:53:11.039Z,95.62
2018-12-31T04:54:11.003Z,95.16
2018-12-31T04:55:10.995Z,95.37
2018-12-31T04:56:10.982Z,95.16
2018-12-31T04:57:10.970Z,95.41
2018-12-31T04:58:10.995Z,95.68
2018-12-31T04:59:10.949Z,96.14
2018-12-31T05:00:10.935Z,96.03
2018-12-31T05:01:10.928Z,96.30
2018-12-31T05:02:10.914Z,96.24
2018-12-31T05:03:10.905Z,96.20
2018-12-31T05:04:10.928Z,96.45
2018-12-31T05:05:10.880Z,96.34
2018-12-31T05:06:10.871Z,95.72
2018-12-31T05:07:10.856Z,96.09
2018-12-31T05:08:10.852Z,96.20
2018-12-31T05:09:10.838Z,95.99
2018-12-31T05:10:10.865Z,95.99
2018-12-31T05:11:10.822Z,95.99
2018-12-31T05:12:10.804Z,96.09
2018-12-31T05:13:10.795Z,95.89
2018-12-31T05:14:10.785Z,96.09
2018-12-31T05:15:10.771Z,95.68
2018-12-31T05:16:10.847Z,95.57
2018-12-31T05:17:10.751Z,95.57
2018-12-31T05:18:10.744Z,95.68
2018-12-31T05:19:10.732Z,95.74
2018-12-31T05:20:10.714Z,95.84
2018-12-31T05:21:10.706Z,95.95
2018-12-31T05:22:10.730Z,95.99
2018-12-31T05:23:10.685Z,95.74
2018-12-31T05:24:10.680Z,95.84
2018-12-31T05:25:10.664Z,95.84
2018-12-31T05:26:10.658Z,95.22
2018-12-31T05:27:10.638Z,95.32
2018-12-31T05:28:10.665Z,95.68
2018-12-31T05:29:10.619Z,95.53
2018-12-31T05:30:10.609Z,95.64
2018-12-31T05:31:10.659Z,95.64
2018-12-31T05:32:10.586Z,95.74
2018-12-31T05:33:10.576Z,95.53
2018-12-31T05:34:10.603Z,95.53
2018-12-31T05:35:10.576Z,95.53
2018-12-31T05:36:10.541Z,95.37
2018-12-31T05:37:10.531Z,95.22
2018-12-31T05:38:10.518Z,95.74
2018-12-31T05:39:10.507Z,95.64
2018-12-31T05:40:10.533Z,95.68
2018-12-31T05:41:10.487Z,95.84
2018-12-31T05:42:10.476Z,95.57
2018-12-31T05:43:10.464Z,95.12
2018-12-31T05:44:10.452Z,95.32
2018-12-31T05:45:10.447Z,95.53
2018-12-31T05:46:10.458Z,96.05
2018-12-31T05:47:10.423Z,95.95
2018-12-31T05:48:10.412Z,95.95
2018-12-31T05:49:10.398Z,96.26
2018-12-31T05:50:10.387Z,95.64
2018-12-31T05:51:10.401Z,95.74
2018-12-31T05:52:10.364Z,95.84
2018-12-31T05:53:10.353Z,95.74
2018-12-31T05:54:10.342Z,95.95
2018-12-31T05:55:10.337Z,95.53
2018-12-31T05:56:10.363Z,95.53
2018-12-31T05:57:10.311Z,95.53
2018-12-31T05:58:10.299Z,95.22
2018-12-31T05:59:10.285Z,95.84
2018-12-31T06:00:10.274Z,95.95
2018-12-31T06:01:10.262Z,95.64
2018-12-31T06:02:10.289Z,95.70
2018-12-31T06:03:10.242Z,95.28
2018-12-31T06:04:10.237Z,95.32
2018-12-31T06:05:10.226Z,95.28
2018-12-31T06:06:10.207Z,95.18
2018-12-31T06:07:10.199Z,95.18
2018-12-31T06:08:10.213Z,95.39
2018-12-31T06:09:10.199Z,94.97
2018-12-31T06:10:10.188Z,94.97
2018-12-31T06:11:10.153Z,94.97
2018-12-31T06:12:10.146Z,95.39
2018-12-31T06:13:10.175Z,95.18
2018-12-31T06:14:10.121Z,94.97
2018-12-31T06:15:10.113Z,94.97
2018-12-31T06:16:10.104Z,94.97
2018-12-31T06:17:10.086Z,94.76
2018-12-31T06:18:10.077Z,94.76
2018-12-31T06:19:10.092Z,94.87
2018-12-31T06:20:10.056Z,95.28
2018-12-31T06:21:10.048Z,95.07
2018-12-31T06:22:10.032Z,94.87
2018-12-31T06:23:10.025Z,95.18
2018-12-31T06:24:10.610Z,95.07
2018-12-31T06:25:10.003Z,94.97
2018-12-31T06:26:09.993Z,94.93
2018-12-31T06:27:09.981Z,95.18
2018-12-31T06:28:09.969Z,95.18
2018-12-31T06:29:09.960Z,95.18
2018-12-31T06:30:09.975Z,95.07
2018-12-31T06:31:09.938Z,95.18
2018-12-31T06:32:09.927Z,95.70
2018-12-31T06:33:09.919Z,95.39
2018-12-31T06:34:09.904Z,95.80
2018-12-31T06:35:09.921Z,95.80
2018-12-31T06:36:09.887Z,96.01
2018-12-31T06:37:09.872Z,95.59
2018-12-31T06:38:09.863Z,95.59
2018-12-31T06:39:09.849Z,95.49
2018-12-31T06:40:09.874Z,95.49
2018-12-31T06:41:09.826Z,95.28
2018-12-31T06:42:09.815Z,95.49
2018-12-31T06:43:09.805Z,95.28
2018-12-31T06:44:09.794Z,95.28
2018-12-31T06:45:09.783Z,95.49
2018-12-31T06:46:09.820Z,95.07
2018-12-31T06:47:09.760Z,95.28
2018-12-31T06:48:09.751Z,95.49
2018-12-31T06:49:09.738Z,95.28
2018-12-31T06:50:09.727Z,95.86
2018-12-31T06:51:09.718Z,96.01
2018-12-31T06:52:09.743Z,96.11
2018-12-31T06:53:09.698Z,96.27
2018-12-31T06:54:09.683Z,96.01
2018-12-31T06:55:09.675Z,96.21
2018-12-31T06:56:09.662Z,96.21
2018-12-31T06:57:09.653Z,95.90
2018-12-31T06:58:09.667Z,95.80
2018-12-31T06:59:09.652Z,95.90
2018-12-31T07:00:09.622Z,96.62
2018-12-31T07:01:09.615Z,96.11
2018-12-31T07:02:09.605Z,96.11
2018-12-31T07:03:09.631Z,96.73
2018-12-31T07:04:09.685Z,96.31
2018-12-31T07:05:09.564Z,96.73
2018-12-31T07:06:09.554Z,96.21
2018-12-31T07:07:09.543Z,96.37
2018-12-31T07:08:09.531Z,96.31
2018-12-31T07:09:09.550Z,96.06
2018-12-31T07:10:09.510Z,96.01
2018-12-31T07:11:09.503Z,96.17
2018-12-31T07:12:09.488Z,95.96
2018-12-31T07:13:09.480Z,96.01
2018-12-31T07:14:09.504Z,95.80
2018-12-31T07:15:09.455Z,95.75
2018-12-31T07:16:09.449Z,95.96
2018-12-31T07:17:09.434Z,96.17
2018-12-31T07:18:09.427Z,95.24
2018-12-31T07:19:09.416Z,96.17
2018-12-31T07:20:09.451Z,95.86
2018-12-31T07:21:09.391Z,95.44
2018-12-31T07:22:09.379Z,95.96
2018-12-31T07:23:09.373Z,96.06
2018-12-31T07:24:09.358Z,95.86
2018-12-31T07:25:09.348Z,95.65
2018-12-31T07:26:09.378Z,95.86
2018-12-31T07:27:09.329Z,96.37
2018-12-31T07:28:09.316Z,95.86
2018-12-31T07:29:09.310Z,96.37
2018-12-31T07:30:09.296Z,96.27
2018-12-31T07:31:09.284Z,95.86
2018-12-31T07:32:09.310Z,95.86
2018-12-31T07:33:09.263Z,95.86
2018-12-31T07:34:09.251Z,96.17
2018-12-31T07:35:09.242Z,95.96
2018-12-31T07:36:09.234Z,95.40
2018-12-31T07:37:09.223Z,95.75
2018-12-31T07:38:09.249Z,95.92
2018-12-31T07:39:09.198Z,95.75
2018-12-31T07:40:09.190Z,96.17
2018-12-31T07:41:09.180Z,95.92
2018-12-31T07:42:09.168Z,96.12
2018-12-31T07:43:09.682Z,95.50
2018-12-31T07:44:09.182Z,95.71
2018-12-31T07:45:09.136Z,95.61
2018-12-31T07:46:09.128Z,95.61
2018-12-31T07:47:09.115Z,95.71
2018-12-31T07:48:09.106Z,95.40
2018-12-31T07:49:09.094Z,95.29
2018-12-31T07:50:09.108Z,95.29
2018-12-31T07:51:09.071Z,95.29
2018-12-31T07:52:09.061Z,95.61
2018-12-31T07:53:09.057Z,95.71
2018-12-31T07:54:09.038Z,95.29
2018-12-31T07:55:09.076Z,95.40
2018-12-31T07:56:09.018Z,95.40
2018-12-31T07:57:09.007Z,95.71
2018-12-31T07:58:09.004Z,95.50
2018-12-31T07:59:08.991Z,95.71
2018-12-31T08:00:08.984Z,95.92
2018-12-31T08:01:08.991Z,95.50
2018-12-31T08:02:08.955Z,95.61
2018-12-31T08:03:08.943Z,95.40
2018-12-31T08:04:08.932Z,95.09
2018-12-31T08:05:08.921Z,95.29
2018-12-31T08:06:08.952Z,95.19
2018-12-31T08:07:08.899Z,95.19
2018-12-31T08:08:08.889Z,95.15
2018-12-31T08:09:08.878Z,94.73
2018-12-31T08:10:08.867Z,95.04
2018-12-31T08:11:08.855Z,94.84
2018-12-31T08:12:08.872Z,95.25
2018-12-31T08:13:08.846Z,94.73
2018-12-31T08:14:08.823Z,94.32
2018-12-31T08:15:08.816Z,94.47
2018-12-31T08:16:08.801Z,93.91
2018-12-31T08:17:08.828Z,94.47
2018-12-31T08:18:08.780Z,94.53
2018-12-31T08:19:08.772Z,94.73
2018-12-31T08:20:08.759Z,93.80
2018-12-31T08:21:08.749Z,93.91
2018-12-31T08:22:08.738Z,94.01
2018-12-31T08:23:08.772Z,94.01
2018-12-31T08:24:08.716Z,94.22
2018-12-31T08:25:08.704Z,93.49
2018-12-31T08:26:08.694Z,93.80
2018-12-31T08:27:08.682Z,93.80
2018-12-31T08:28:08.708Z,93.60
2018-12-31T08:29:08.662Z,93.35
2018-12-31T08:30:08.650Z,93.91
2018-12-31T08:31:08.640Z,93.39
2018-12-31T08:32:08.627Z,93.60
2018-12-31T08:33:08.616Z,93.76
2018-12-31T08:34:08.644Z,93.70
2018-12-31T08:35:08.594Z,93.76
2018-12-31T08:36:08.602Z,93.66
2018-12-31T08:37:08.575Z,93.35
2018-12-31T08:38:08.563Z,93.24
2018-12-31T08:39:08.551Z,93.14
2018-12-31T08:40:08.576Z,93.55
2018-12-31T08:41:08.528Z,93.29
2018-12-31T08:42:08.519Z,93.91
2018-12-31T08:43:08.506Z,93.76
2018-12-31T08:44:08.494Z,93.66
2018-12-31T08:45:08.510Z,93.29
2018-12-31T08:46:08.495Z,93.04
2018-12-31T08:47:08.462Z,93.14
2018-12-31T08:48:08.451Z,93.35
2018-12-31T08:49:08.444Z,93.35
2018-12-31T08:50:08.453Z,93.24
2018-12-31T08:51:08.418Z,93.35
2018-12-31T08:52:08.414Z,92.83
2018-12-31T08:53:08.394Z,93.24
2018-12-31T08:54:08.385Z,92.83
2018-12-31T08:55:08.414Z,92.72
2018-12-31T08:56:08.361Z,92.83
2018-12-31T08:57:08.365Z,92.99
2018-12-31T08:58:08.339Z,93.10
2018-12-31T08:59:08.350Z,92.83
2018-12-31T09:00:08.318Z,92.68
2018-12-31T09:01:08.331Z,92.99
2018-12-31T09:02:08.297Z,92.89
2018-12-31T09:03:08.283Z,92.72
2018-12-31T09:04:08.274Z,92.99
2018-12-31T09:05:08.261Z,92.07
2018-12-31T09:06:08.277Z,92.11
2018-12-31T09:07:08.241Z,92.07
2018-12-31T09:08:08.229Z,92.07
2018-12-31T09:09:08.219Z,91.82
2018-12-31T09:10:08.207Z,91.96
2018-12-31T09:11:08.233Z,92.17
2018-12-31T09:12:08.188Z,91.86
2018-12-31T09:13:08.183Z,92.13
2018-12-31T09:14:08.163Z,91.71
2018-12-31T09:15:08.152Z,91.86
2018-12-31T09:16:08.145Z,91.55
2018-12-31T09:17:08.265Z,91.82
2018-12-31T09:18:08.177Z,92.07
2018-12-31T09:19:08.171Z,91.75
2018-12-31T09:20:08.161Z,91.86
2018-12-31T09:21:08.120Z,91.75
2018-12-31T09:22:08.117Z,91.86
2018-12-31T09:23:08.106Z,92.27
2018-12-31T09:24:08.097Z,92.27
2018-12-31T09:25:08.046Z,92.89
2018-12-31T09:26:08.032Z,92.68
2018-12-31T09:27:08.085Z,92.99
2018-12-31T09:28:08.029Z,92.89
2018-12-31T09:29:08.036Z,92.38
2018-12-31T09:30:07.992Z,92.99
2018-12-31T09:31:08.011Z,92.89
2018-12-31T09:32:08.029Z,92.58
2018-12-31T09:33:07.992Z,92.27
2018-12-31T09:34:07.997Z,92.17
2018-12-31T09:35:07.938Z,93.10
2018-12-31T09:36:07.925Z,92.17
2018-12-31T09:37:07.913Z,91.96
2018-12-31T09:38:07.939Z,91.50
2018-12-31T09:39:07.891Z,91.82
2018-12-31T09:40:07.879Z,91.82
2018-12-31T09:41:07.868Z,91.92
2018-12-31T09:42:07.860Z,91.71
2018-12-31T09:43:07.847Z,91.61
2018-12-31T09:44:07.893Z,91.36
2018-12-31T09:45:07.834Z,91.30
2018-12-31T09:46:07.812Z,91.16
2018-12-31T09:47:07.802Z,91.05
2018-12-31T09:48:07.796Z,90.84
2018-12-31T09:49:07.783Z,90.43
2018-12-31T09:50:07.797Z,90.84
2018-12-31T09:51:07.761Z,90.74
2018-12-31T09:52:07.755Z,90.74
2018-12-31T09:53:07.800Z,90.95
2018-12-31T09:54:07.729Z,90.84
2018-12-31T09:55:07.771Z,90.64
2018-12-31T09:56:07.799Z,90.84
2018-12-31T09:57:07.699Z,90.53
2018-12-31T09:58:07.685Z,89.98
2018-12-31T09:59:07.673Z,89.77
2018-12-31T10:00:07.664Z,90.02
2018-12-31T10:01:07.734Z,89.77
2018-12-31T10:02:07.642Z,89.98
2018-12-31T10:03:07.655Z,89.77
2018-12-31T10:04:07.669Z,89.15
2018-12-31T10:05:07.635Z,89.25
2018-12-31T10:06:07.759Z,89.29
2018-12-31T10:07:07.633Z,89.67
2018-12-31T10:08:07.594Z,89.25
2018-12-31T10:09:07.577Z,89.15
2018-12-31T10:10:07.607Z,89.56
2018-12-31T10:11:07.570Z,89.67
2018-12-31T10:12:07.653Z,89.25
2018-12-31T10:13:07.534Z,89.05
2018-12-31T10:14:07.576Z,89.25
2018-12-31T10:15:07.554Z,89.15
2018-12-31T10:16:07.536Z,88.53
2018-12-31T10:17:07.509Z,88.49
2018-12-31T10:18:07.558Z,88.39
2018-12-31T10:19:07.474Z,88.39
2018-12-31T10:20:07.446Z,88.29
2018-12-31T10:21:07.469Z,88.29
2018-12-31T10:22:07.450Z,88.49
2018-12-31T10:23:07.415Z,88.18
2018-12-31T10:24:07.440Z,88.08
2018-12-31T10:25:07.444Z,87.66
2018-12-31T10:26:07.386Z,87.77
2018-12-31T10:27:07.428Z,87.77
2018-12-31T10:28:07.387Z,87.66
2018-12-31T10:29:07.350Z,87.15
2018-12-31T10:30:07.435Z,87.32
2018-12-31T10:31:07.377Z,86.70
2018-12-31T10:32:07.323Z,86.15
2018-12-31T10:33:07.307Z,85.01
2018-12-31T10:34:07.338Z,84.80
2018-12-31T10:35:07.311Z,84.35
2018-12-31T10:36:07.304Z,84.14
2018-12-31T10:37:07.262Z,84.14
2018-12-31T10:38:07.248Z,83.22
2018-12-31T10:39:07.240Z,83.63
2018-12-31T10:40:07.253Z,84.05
2018-12-31T10:41:07.216Z,84.05
2018-12-31T10:42:07.203Z,84.56
2018-12-31T10:43:07.233Z,84.35
2018-12-31T10:44:07.189Z,84.14
2018-12-31T10:45:07.298Z,84.35
2018-12-31T10:46:07.248Z,84.05
2018-12-31T10:47:07.203Z,84.00
2018-12-31T10:48:07.161Z,83.49
2018-12-31T10:49:07.170Z,82.91
2018-12-31T10:50:07.123Z,83.42
2018-12-31T10:51:07.189Z,83.32
2018-12-31T10:52:08.074Z,83.63
2018-12-31T10:53:07.132Z,83.32
2018-12-31T10:54:07.092Z,83.32
2018-12-31T10:55:07.075Z,83.56
2018-12-31T10:56:07.178Z,83.67
2018-12-31T10:57:07.083Z,83.77
2018-12-31T10:58:07.036Z,83.26
2018-12-31T10:59:07.055Z,83.05
2018-12-31T11:00:07.066Z,82.81
2018-12-31T11:01:07.111Z,82.91
2018-12-31T11:02:07.029Z,82.50
2018-12-31T11:03:06.972Z,82.43
2018-12-31T11:04:06.973Z,82.29
2018-12-31T11:05:06.987Z,82.40
2018-12-31T11:06:06.970Z,82.70
2018-12-31T11:07:06.965Z,82.60
2018-12-31T11:08:06.950Z,82.33
2018-12-31T11:09:06.906Z,82.95
2018-12-31T11:10:06.944Z,82.50
2018-12-31T11:11:06.882Z,82.50
2018-12-31T11:12:06.947Z,82.35
2018-12-31T11:13:06.861Z,81.19
2018-12-31T11:14:06.897Z,80.53
2018-12-31T11:15:06.847Z,80.22
2018-12-31T11:16:06.893Z,79.91
2018-12-31T11:17:06.839Z,79.98
2018-12-31T11:18:06.843Z,79.91
2018-12-31T11:19:06.847Z,80.43
2018-12-31T11:20:06.787Z,80.77
2018-12-31T11:21:06.773Z,80.98
2018-12-31T11:22:06.766Z,81.09
2018-12-31T11:23:06.750Z,80.88
2018-12-31T11:24:06.779Z,80.98
2018-12-31T11:25:06.764Z,81.19
2018-12-31T11:26:06.721Z,81.19
2018-12-31T11:27:06.708Z,80.16
2018-12-31T11:28:06.700Z,80.36
2018-12-31T11:29:06.686Z,80.36
2018-12-31T11:30:06.713Z,80.26
2018-12-31T11:31:06.665Z,80.16
2018-12-31T11:32:06.657Z,80.16
2018-12-31T11:33:06.643Z,80.26
2018-12-31T11:34:06.633Z,80.77
2018-12-31T11:35:06.646Z,81.19
2018-12-31T11:36:06.614Z,81.29
2018-12-31T11:37:06.600Z,80.67
2018-12-31T11:38:06.588Z,80.57
2018-12-31T11:39:06.579Z,80.88
2018-12-31T11:40:06.627Z,80.77
2018-12-31T11:41:06.554Z,81.19
2018-12-31T11:42:06.544Z,80.98
2018-12-31T11:43:06.533Z,80.98
2018-12-31T11:44:06.522Z,81.23
2018-12-31T11:45:06.523Z,80.91
2018-12-31T11:46:06.525Z,81.53
2018-12-31T11:47:06.489Z,81.12
2018-12-31T11:48:06.477Z,81.12
2018-12-31T11:49:06.469Z,81.43
2018-12-31T11:50:06.455Z,81.95
2018-12-31T11:51:06.475Z,81.84
2018-12-31T11:52:06.437Z,82.15
2018-12-31T11:53:06.423Z,82.05
2018-12-31T11:54:06.414Z,82.15
2018-12-31T11:55:06.402Z,82.15
2018-12-31T11:56:06.424Z,82.05
2018-12-31T11:57:06.380Z,82.05
2018-12-31T11:58:06.375Z,81.63
2018-12-31T11:59:06.360Z,81.84
2018-12-31T12:00:06.347Z,82.15
2018-12-31T12:01:06.364Z,81.95
2018-12-31T12:02:06.325Z,81.23
2018-12-31T12:03:06.316Z,81.33
2018-12-31T12:04:06.305Z,81.39
2018-12-31T12:05:06.292Z,81.29
2018-12-31T12:06:06.321Z,80.88
2018-12-31T12:07:06.270Z,80.88
2018-12-31T12:08:06.263Z,80.77
2018-12-31T12:09:06.250Z,80.16
2018-12-31T12:10:06.240Z,80.57
2018-12-31T12:11:06.228Z,80.36
2018-12-31T12:12:06.245Z,80.57
2018-12-31T12:13:06.205Z,80.47
2018-12-31T12:14:06.193Z,80.12
2018-12-31T12:15:06.184Z,80.22
2018-12-31T12:16:06.172Z,80.33
2018-12-31T12:17:06.256Z,80.02
2018-12-31T12:18:06.149Z,79.61
2018-12-31T12:19:06.138Z,79.61
2018-12-31T12:20:06.143Z,79.50
2018-12-31T12:21:06.117Z,79.50
2018-12-31T12:22:06.106Z,79.61
2018-12-31T12:23:06.127Z,79.61
2018-12-31T12:24:06.088Z,79.57
2018-12-31T12:25:06.078Z,79.40
2018-12-31T12:26:06.062Z,79.67
2018-12-31T12:27:06.056Z,79.47
2018-12-31T12:28:06.084Z,79.05
2018-12-31T12:29:06.037Z,78.64
2018-12-31T12:30:06.018Z,77.99
2018-12-31T12:31:06.008Z,77.78
2018-12-31T12:32:05.999Z,78.09
2018-12-31T12:33:05.993Z,77.89
2018-12-31T12:34:06.001Z,77.58
2018-12-31T12:35:05.963Z,78.13
2018-12-31T12:36:05.956Z,78.75
2018-12-31T12:37:05.944Z,79.36
2018-12-31T12:38:05.934Z,79.61
2018-12-31T12:39:05.959Z,80.22
2018-12-31T12:40:05.910Z,80.63
2018-12-31T12:41:05.903Z,80.05
2018-12-31T12:42:05.886Z,80.57
2018-12-31T12:43:05.877Z,81.15
2018-12-31T12:44:05.877Z,81.29
2018-12-31T12:45:05.884Z,80.88
2018-12-31T12:46:05.846Z,81.49
2018-12-31T12:47:05.829Z,80.98
2018-12-31T12:48:05.820Z,81.60
2018-12-31T12:49:05.812Z,81.67
2018-12-31T12:50:05.835Z,81.09
2018-12-31T12:51:05.788Z,80.77
2018-12-31T12:52:05.776Z,81.15